LKLN

Details ICAO LKLN
Name Plzen - Line
Region Czech Republic
Timezone Europe/Prague (UTC+1.0)
Plans Departing 18
Arriving 23
Stats Elevation 1,187 ft / 362 m (AMSL)
Location 49.675230° 13.274484°
Runways 1
Magnetic Variation 3.589° E
Sunrise 2017-12-18 07:00:56 UTC / 2017-12-18 08:00:56 Local
Sunset 2017-12-18 15:08:46 UTC / 2017-12-18 16:08:46 Local
Advertisement - Login to hide

Runways

ID Width Length Bearing (true) Bearing (mag) Surface Threshold Offset Overrun Length
06 197 ft / 60 m 4,755 ft / 1,449 m 58.19° 54.60° Concrete 0 ft / 0 m 2,477 ft / 755 m
24 197 ft / 60 m 4,755 ft / 1,449 m 238.21° 234.62° Concrete 0 ft / 0 m 784 ft / 239 m

Map

Weather


0- 5 10 15 20 25 30 35+ Temperature / ° C

Clouds and Precipitation
Forecast for 2017-12-18 06:00 UTC. Updated 22 minutes ago

Ground ~20,000 ft ~40,000 ft Winds

METAR

LKLN 180100Z AUTO 25003KT 9999 FEW034 OVC050 M00/M02 Q1023

TAF

Not found

Frequencies

Tower 129.00 MHz INFO
Warning: Do not use this data for real-world aviation or navigation. No guarantee of current accuracy is given.